Terminal Aerodrome Forecast
Issued by NWS

Home | Current Version | Previous Version | Graphics & Text | Print | Product List | Glossary On
Versions: 1 2 3 4 5 6 7 8 9 10 11 12 13 14 15 16 17 18 19 20 21 22 23 24 25 26 27 28 29 30 31
000
FTUS43 KBIS 271741
TAFDIK
TAF
KDIK 271741Z 2718/2818 12006KT P6SM VCSH SCT040 BKN100
     FM272200 07008KT P6SM VCTS BKN060CB
     FM280200 10006KT P6SM VCSH OVC060
     FM281000 10006KT 4SM -SHRA BR BKN010 OVC050
     FM281400 12008KT P6SM BKN025 OVC050=

USA.gov is the U.S. government's official web portal to all federal, state and local government web resources and services.